Aeroporto :
LOGIN :

Iscrizione | Disclaimer

   EN    FR    IT 

 










Sommario :    VFR   VFR Marginale   IFR   IFR Intensivo   IFR Molto Intensivo
Visibilità : 
Base nubi : 
>= 8 km
>= 3000ft
5 / 8 km
1000 / 3000 ft
1500m / 5 km
500 / 1000 ft
800 / 1500m
200 / 500 ft
< 800m
< 200 ft
Simboli :   Temporali  Nebbia  Neve Forte  Precipitazioni Forti  Vento > 20 kt
SIGMETs :   Varie  Temporali  Ghiacco  Turbolenza  Onda orograficha  Ceneri Vulcaniche







- Altitudine del aeroporto : 1363 ft


ETIC - Grafenwohr Army Air Field

ULTIMO METAR :
  • 181556Z AUTO 00000KT 9999 CLR 28/10 A3001 RMK AO2 SLP154 T02750098 TSNO $

METARs OBSOLETI :
  • 181456Z AUTO 14003KT 9999 CLR 28/11 A3001 RMK AO2 SLP154 T02760107 57014 TSNO $
  • 181356Z AUTO 17004KT 9999 CLR 27/13 A3002 RMK AO2 SLP157 T02720132 TSNO $

TAF TAF ETIC
Valido dal 18 a 14 ore il 19 a 20 ore UTC


181359Z 1814/1920 25009KT 9999 SCT150 QNH2994INS
BECMG 1817/1818 VRB06KT 9999 SCT150 QNH2995INS
BECMG 1901/1902 VRB06KT 9999 FEW045 QNH2998INS
BECMG 1905/1906 VRB06KT 9999 SCT050 QNH3004INS TX29/1815Z TN16/1906Z
Nessun NOTAM noto per questo aeroporto.



MetMap, La meteo Aeronautica in un colpo d'occhio ! - Copyright ORBIFLY Dicembre 2007 - Disclaimer

ORBIFLY MET'MAP TEAM :

Programmazione e sviluppo : Alexandra Zaïnal
Concezione e sviluppo : Baudouin d'Aumeries
Co-Programmazione e sviluppo : Marc-Olivier Méhu
Supporto tecnico e logistico : Manuel Goepfert
Aiuto per la traduzione : Arnaldo La Scala

Contatto : metmap@orbifly.com




FONTI E CREDITI :

   NOAA